createdAt,value
2022-12-01T00:01:45.012Z,99730.21
2022-12-01T00:06:46.313Z,99724.21
2022-12-01T00:11:51.485Z,99717.86
2022-12-01T00:16:53.502Z,99716.82
2022-12-01T00:21:54.729Z,99710.30
2022-12-01T00:26:55.858Z,99709.09
2022-12-01T00:31:57.073Z,99708.23
2022-12-01T00:36:58.240Z,99709.09
2022-12-01T00:41:59.885Z,99716.28
2022-12-01T00:47:01.043Z,99712.53
2022-12-01T00:52:02.208Z,99703.28
2022-12-01T00:57:04.695Z,99704.66
2022-12-01T01:02:07.268Z,99704.48
2022-12-01T01:07:08.373Z,99701.39
2022-12-01T01:12:09.510Z,99698.60
2022-12-01T01:17:10.672Z,99696.23
2022-12-01T01:22:11.832Z,99695.88
2022-12-01T01:27:12.924Z,99694.63
2022-12-01T01:32:14.053Z,99695.96
2022-12-01T01:37:15.210Z,99690.18
2022-12-01T01:42:20.062Z,99686.41
2022-12-01T01:47:35.040Z,99679.20
2022-12-01T01:52:39.990Z,99673.71
2022-12-01T01:57:42.613Z,99670.30
2022-12-01T02:02:46.133Z,99666.40
2022-12-01T02:07:48.446Z,99659.73
2022-12-01T02:12:55.430Z,99664.17
2022-12-01T02:18:13.646Z,99660.41
2022-12-01T02:23:17.532Z,99657.65
2022-12-01T02:28:53.218Z,99654.73
2022-12-01T02:34:06.208Z,99653.84
2022-12-01T02:39:38.779Z,99653.98
2022-12-01T02:44:44.106Z,99652.44
2022-12-01T02:49:52.127Z,99650.54
2022-12-01T02:54:54.281Z,99647.92
2022-12-01T02:59:56.622Z,99646.17
2022-12-01T03:05:09.021Z,99644.31
2022-12-01T03:10:29.842Z,99633.48
2022-12-01T03:15:35.280Z,99629.40
2022-12-01T03:21:00.764Z,99630.05
2022-12-01T03:26:06.443Z,99623.88
2022-12-01T03:31:12.752Z,99623.50
2022-12-01T03:36:21.327Z,99624.68
2022-12-01T03:41:28.652Z,99619.16
2022-12-01T03:46:41.910Z,99619.48
2022-12-01T03:51:58.624Z,99626.80
2022-12-01T03:57:04.903Z,99625.23
2022-12-01T04:02:07.720Z,99623.88
2022-12-01T04:07:12.910Z,99620.96
2022-12-01T04:12:29.891Z,99617.89
2022-12-01T04:17:31.658Z,99616.52
2022-12-01T04:22:33.231Z,99609.96
2022-12-01T04:27:35.315Z,99611.33
2022-12-01T04:32:38.236Z,99610.13
2022-12-01T04:37:39.884Z,99608.74
2022-12-01T04:42:41.147Z,99615.27
2022-12-01T04:47:42.754Z,99612.54
2022-12-01T04:52:43.976Z,99621.79
2022-12-01T04:57:45.065Z,99620.21
2022-12-01T05:02:46.301Z,99626.55
2022-12-01T05:07:47.630Z,99625.48
2022-12-01T05:12:49.301Z,99628.02
2022-12-01T05:17:50.429Z,99629.73
2022-12-01T05:23:05.268Z,99628.55
2022-12-01T05:28:07.562Z,99627.39
2022-12-01T05:33:08.736Z,99627.73
2022-12-01T05:38:09.989Z,99623.30
2022-12-01T05:43:11.152Z,99623.67
2022-12-01T05:48:12.410Z,99619.53
2022-12-01T05:53:14.209Z,99619.25
2022-12-01T05:58:15.346Z,99609.96
2022-12-01T06:03:16.609Z,99616.41
2022-12-01T06:08:18.200Z,99619.85
2022-12-01T06:13:19.649Z,99632.86
2022-12-01T06:18:20.798Z,99630.29
2022-12-01T06:23:26.263Z,99637.73
2022-12-01T06:28:30.196Z,99641.67
2022-12-01T06:33:31.589Z,99645.18
2022-12-01T06:38:34.566Z,99653.56
2022-12-01T06:43:39.496Z,99649.61
2022-12-01T06:48:40.775Z,99651.63
2022-12-01T06:53:41.935Z,99656.98
2022-12-01T06:58:42.999Z,99658.92
2022-12-01T07:03:49.274Z,99662.38
2022-12-01T07:08:51.868Z,99657.13
2022-12-01T07:13:56.306Z,99663.19
2022-12-01T07:18:59.365Z,99664.02
2022-12-01T07:24:00.983Z,99664.17
2022-12-01T07:29:02.080Z,99666.40
2022-12-01T07:34:04.247Z,99670.80
2022-12-01T07:39:07.230Z,99672.61
2022-12-01T07:44:11.644Z,99677.05
2022-12-01T07:49:15.081Z,99674.45
2022-12-01T07:54:19.407Z,99672.52
2022-12-01T07:59:20.697Z,99672.38
2022-12-01T08:04:21.839Z,99671.41
2022-12-01T08:09:23.243Z,99672.65
2022-12-01T08:14:24.466Z,99672.11
2022-12-01T08:19:27.099Z,99668.48
2022-12-01T08:24:28.214Z,99670.15
2022-12-01T08:29:29.383Z,99671.46
2022-12-01T08:34:30.544Z,99667.27
2022-12-01T08:39:31.673Z,99666.91
2022-12-01T08:44:42.233Z,99668.44
2022-12-01T08:49:43.446Z,99675.14
2022-12-01T08:54:44.541Z,99680.59
2022-12-01T08:59:45.865Z,99679.90
2022-12-01T09:04:47.232Z,99684.73
2022-12-01T09:09:48.499Z,99684.08
2022-12-01T09:14:50.028Z,99681.68
2022-12-01T09:19:51.741Z,99676.02
2022-12-01T09:24:53.206Z,99677.25
2022-12-01T09:29:54.342Z,99673.30
2022-12-01T09:34:55.525Z,99670.85
2022-12-01T09:39:56.686Z,99661.67
2022-12-01T09:45:01.165Z,99654.10
2022-12-01T09:50:10.523Z,99651.42
2022-12-01T09:55:14.295Z,99649.73
2022-12-01T10:00:22.633Z,99645.39
2022-12-01T10:05:31.086Z,99643.64
2022-12-01T10:10:52.119Z,99638.83
2022-12-01T10:15:53.404Z,99638.61
2022-12-01T10:21:12.641Z,99638.16
2022-12-01T10:26:35.681Z,99638.65
2022-12-01T10:31:50.288Z,99629.36
2022-12-01T10:36:51.860Z,99630.93
2022-12-01T10:42:01.857Z,99626.95
2022-12-01T10:47:05.273Z,99622.27
2022-12-01T10:52:08.037Z,99619.48
2022-12-01T10:57:16.317Z,99619.60
2022-12-01T11:02:21.241Z,99611.86
2022-12-01T11:07:26.528Z,99607.11
2022-12-01T11:12:28.242Z,99608.02
2022-12-01T11:17:35.444Z,99605.98
2022-12-01T11:22:36.563Z,99605.40
2022-12-01T11:27:51.116Z,99602.21
2022-12-01T11:33:01.760Z,99603.94
2022-12-01T11:38:28.891Z,99605.30
2022-12-01T11:43:37.057Z,99603.04
2022-12-01T11:48:38.490Z,99608.98
2022-12-01T11:53:42.108Z,99609.94
2022-12-01T11:58:44.902Z,99606.02
2022-12-01T12:04:12.817Z,99600.59
2022-12-01T12:09:26.464Z,99601.61
2022-12-01T12:14:45.967Z,99608.09
2022-12-01T12:20:09.459Z,99606.36
2022-12-01T12:25:24.340Z,99603.16
2022-12-01T12:30:30.776Z,99606.02
2022-12-01T12:35:38.163Z,99607.38
2022-12-01T12:40:50.258Z,99606.98
2022-12-01T12:45:57.497Z,99608.11
2022-12-01T12:51:13.810Z,99604.52
2022-12-01T12:56:19.462Z,99598.30
2022-12-01T13:01:35.817Z,99601.61
2022-12-01T13:07:00.046Z,99611.66
2022-12-01T13:12:08.725Z,99611.66
2022-12-01T13:17:20.695Z,99607.34
2022-12-01T13:22:29.638Z,99615.94
2022-12-01T13:27:35.508Z,99613.69
2022-12-01T13:32:42.729Z,99611.83
2022-12-01T13:37:43.795Z,99614.79
2022-12-01T13:42:56.499Z,99617.07
2022-12-01T13:47:59.502Z,99614.54
2022-12-01T13:53:09.881Z,99613.89
2022-12-01T13:58:13.091Z,99616.20
2022-12-01T14:03:18.534Z,99610.66
2022-12-01T14:08:28.144Z,99619.86
2022-12-01T14:13:31.862Z,99621.77
2022-12-01T14:18:36.880Z,99620.37
2022-12-01T14:24:04.464Z,99621.58
2022-12-01T14:29:05.483Z,99627.35
2022-12-01T14:34:08.418Z,99628.14
2022-12-01T14:39:58.070Z,99626.54
2022-12-01T14:45:02.762Z,99625.98
2022-12-01T14:50:29.519Z,99621.23
2022-12-01T14:55:42.985Z,99616.31
2022-12-01T15:01:10.387Z,99618.94
2022-12-01T15:06:18.102Z,99615.51
2022-12-01T15:11:24.852Z,99622.20
2022-12-01T15:16:30.077Z,99622.23
2022-12-01T15:21:31.524Z,99615.46
2022-12-01T15:26:50.656Z,99619.66
2022-12-01T15:31:54.934Z,99619.97
2022-12-01T15:36:57.630Z,99618.92
2022-12-01T15:41:59.564Z,99619.19
2022-12-01T15:47:29.602Z,99621.09
2022-12-01T15:52:31.713Z,99620.83
2022-12-01T15:57:34.392Z,99616.34
2022-12-01T16:02:35.635Z,99615.67
2022-12-01T16:08:12.242Z,99614.70
2022-12-01T16:13:36.123Z,99613.98
2022-12-01T16:18:37.285Z,99615.52
2022-12-01T16:23:38.650Z,99610.86
2022-12-01T16:28:39.812Z,99612.29
2022-12-01T16:33:40.979Z,99613.20
2022-12-01T16:38:42.543Z,99614.92
2022-12-01T16:43:59.163Z,99612.13
2022-12-01T16:49:06.778Z,99606.78
2022-12-01T16:54:08.964Z,99607.20
2022-12-01T16:59:10.123Z,99605.52
2022-12-01T17:04:11.282Z,99611.39
2022-12-01T17:09:12.960Z,99610.58
2022-12-01T17:14:14.247Z,99611.23
2022-12-01T17:19:15.925Z,99615.10
2022-12-01T17:24:19.166Z,99612.92
2022-12-01T17:29:20.666Z,99614.02
2022-12-01T17:34:21.930Z,99616.38
2022-12-01T17:39:23.088Z,99616.14
2022-12-01T17:44:24.215Z,99611.73
2022-12-01T17:49:25.271Z,99610.17
2022-12-01T17:54:26.426Z,99611.11
2022-12-01T17:59:27.630Z,99610.10
2022-12-01T18:04:30.685Z,99608.98
2022-12-01T18:09:32.016Z,99607.64
2022-12-01T18:14:33.965Z,99606.63
2022-12-01T18:19:35.342Z,99606.11
2022-12-01T18:24:36.475Z,99605.86
2022-12-01T18:29:37.571Z,99604.09
2022-12-01T18:34:38.730Z,99599.87
2022-12-01T18:39:39.884Z,99600.89
2022-12-01T18:44:41.819Z,99603.71
2022-12-01T18:49:43.129Z,99608.91
2022-12-01T18:54:44.246Z,99606.22
2022-12-01T18:59:45.558Z,99604.30
2022-12-01T19:04:49.248Z,99606.36
2022-12-01T19:09:50.691Z,99608.30
2022-12-01T19:14:53.644Z,99604.57
2022-12-01T19:19:55.929Z,99609.69
2022-12-01T19:24:57.440Z,99609.33
2022-12-01T19:29:58.735Z,99604.58
2022-12-01T19:35:00.022Z,99601.48
2022-12-01T19:40:01.241Z,99598.98
2022-12-01T19:45:03.372Z,99595.94
2022-12-01T19:50:05.458Z,99592.90
2022-12-01T19:55:08.068Z,99584.80
2022-12-01T20:00:10.148Z,99582.06
2022-12-01T20:05:15.356Z,99579.43
2022-12-01T20:10:19.426Z,99577.57
2022-12-01T20:15:20.574Z,99580.19
2022-12-01T20:20:21.832Z,99584.26
2022-12-01T20:25:22.993Z,99583.02
2022-12-01T20:30:24.028Z,99583.23
2022-12-01T20:35:25.215Z,99583.98
2022-12-01T20:40:26.309Z,99582.11
2022-12-01T20:45:27.780Z,99583.49
2022-12-01T20:50:28.899Z,99584.17
2022-12-01T20:55:30.056Z,99588.60
2022-12-01T21:00:31.526Z,99587.74
2022-12-01T21:05:32.577Z,99584.36
2022-12-01T21:10:44.133Z,99586.23
2022-12-01T21:15:55.453Z,99583.63
2022-12-01T21:21:07.434Z,99583.05
2022-12-01T21:26:14.808Z,99588.67
2022-12-01T21:31:16.419Z,99587.79
2022-12-01T21:36:22.866Z,99590.36
2022-12-01T21:41:29.582Z,99586.32
2022-12-01T21:46:31.268Z,99587.03
2022-12-01T21:51:32.594Z,99585.69
2022-12-01T21:56:33.856Z,99587.89
2022-12-01T22:01:34.989Z,99586.51
2022-12-01T22:06:43.652Z,99586.36
2022-12-01T22:11:50.134Z,99583.07
2022-12-01T22:16:57.632Z,99583.73
2022-12-01T22:22:07.902Z,99585.95
2022-12-01T22:27:26.385Z,99577.63
2022-12-01T22:32:38.602Z,99577.70
2022-12-01T22:37:45.836Z,99572.91
2022-12-01T22:42:46.967Z,99568.64
2022-12-01T22:48:01.368Z,99568.62
2022-12-01T22:53:13.357Z,99566.42
2022-12-01T22:58:21.985Z,99559.77
2022-12-01T23:03:23.309Z,99555.49
2022-12-01T23:08:24.511Z,99559.13
2022-12-01T23:13:25.574Z,99554.52
2022-12-01T23:18:31.555Z,99550.73
2022-12-01T23:23:35.606Z,99549.34
2022-12-01T23:28:38.799Z,99552.42
2022-12-01T23:33:40.054Z,99548.67
2022-12-01T23:38:50.616Z,99544.44
2022-12-01T23:43:54.668Z,99542.07
2022-12-01T23:49:01.852Z,99538.83
2022-12-01T23:54:23.740Z,99538.45
2022-12-01T23:59:25.475Z,99536.92
